Time;durP1;ratioP1;P1;durP2;ratioP2;P2;SDS_P1;SDS_P2;PMS_P1;PMS_P2;Temp;Humidity;BMP_temperature;BMP_pressure;BME280_temperature;BME280_humidity;BME280_pressure;Samples;Min_cycle;Max_cycle;Signal;HPM_P1;HPM_P2
2023/04/27 00:01:13;;;;;;;6.40;2.13;;;3.50;99.90;;;;;;5037496;28;20140;-33
2023/04/27 00:03:40;;;;;;;5.68;2.58;;;3.50;99.90;;;;;;5030009;28;20484;-33
2023/04/27 00:06:07;;;;;;;4.75;2.17;;;3.40;99.90;;;;;;5045551;28;20503;-33
2023/04/27 00:08:33;;;;;;;5.05;2.38;;;3.40;99.90;;;;;;5029735;28;20061;-33
2023/04/27 00:10:59;;;;;;;4.63;1.95;;;3.40;99.90;;;;;;5035364;28;20045;-33
2023/04/27 00:13:25;;;;;;;6.95;2.38;;;3.30;99.90;;;;;;5030389;28;20144;-33
2023/04/27 00:15:51;;;;;;;5.28;1.73;;;3.30;99.90;;;;;;5029638;28;20071;-33
2023/04/27 00:18:17;;;;;;;5.00;2.15;;;3.30;99.90;;;;;;5052469;28;20045;-33
2023/04/27 00:20:43;;;;;;;4.55;2.20;;;3.30;99.90;;;;;;5033644;28;20053;-33
2023/04/27 00:23:09;;;;;;;3.92;2.30;;;3.20;99.90;;;;;;5033363;28;20168;-33
2023/04/27 00:25:35;;;;;;;4.82;2.10;;;3.20;99.90;;;;;;5031785;28;20060;-33
2023/04/27 00:28:01;;;;;;;4.78;2.15;;;3.20;99.90;;;;;;5043059;28;20404;-33
2023/04/27 00:30:27;;;;;;;4.20;2.10;;;3.20;99.90;;;;;;5036986;28;20056;-33
2023/04/27 00:32:52;;;;;;;5.65;2.30;;;3.20;99.90;;;;;;5028560;28;20085;-33
2023/04/27 00:35:18;;;;;;;4.30;2.00;;;3.20;99.90;;;;;;5037057;28;20053;-33
2023/04/27 00:37:44;;;;;;;5.68;2.17;;;3.20;99.90;;;;;;5029571;28;20054;-33
2023/04/27 00:40:10;;;;;;;3.90;1.80;;;3.10;99.90;;;;;;5037827;28;20076;-33
2023/04/27 00:42:35;;;;;;;7.15;2.47;;;3.10;99.90;;;;;;5039180;28;20404;-33
2023/04/27 00:45:02;;;;;;;5.88;2.47;;;3.10;99.90;;;;;;5049271;28;20057;-33
2023/04/27 00:47:29;;;;;;;4.43;2.13;;;3.10;99.90;;;;;;5040870;28;20057;-33
2023/04/27 00:49:55;;;;;;;5.80;2.53;;;3.00;99.90;;;;;;5035609;28;20058;-33
2023/04/27 00:52:20;;;;;;;5.38;2.47;;;3.00;99.90;;;;;;5029461;28;20056;-33
2023/04/27 00:54:50;;;;;;;6.05;2.50;;;3.00;99.90;;;;;;5036978;28;20202;-33
2023/04/27 00:57:16;;;;;;;5.55;2.33;;;3.00;99.90;;;;;;5029082;28;20061;-33
2023/04/27 00:59:42;;;;;;;5.63;2.55;;;3.00;99.90;;;;;;5030050;28;20060;-33
2023/04/27 01:02:09;;;;;;;7.05;2.17;;;3.00;99.90;;;;;;5035537;28;20072;-33
2023/04/27 01:04:35;;;;;;;6.75;2.83;;;3.00;99.90;;;;;;5037180;28;20053;-32
2023/04/27 01:07:01;;;;;;;4.97;2.20;;;2.90;99.90;;;;;;5036455;28;20056;-33
2023/04/27 01:09:27;;;;;;;5.38;2.50;;;2.90;99.90;;;;;;5036956;28;20072;-33
2023/04/27 01:11:53;;;;;;;5.35;2.50;;;2.90;99.90;;;;;;5028526;28;20049;-33
2023/04/27 01:14:18;;;;;;;4.57;2.30;;;2.90;99.90;;;;;;5028111;28;20419;-33
2023/04/27 01:16:45;;;;;;;4.22;2.08;;;2.90;99.90;;;;;;5038032;28;20521;-33
2023/04/27 01:19:11;;;;;;;4.38;2.22;;;2.80;99.90;;;;;;5029315;28;20593;-33
2023/04/27 01:21:37;;;;;;;4.28;2.10;;;2.80;99.90;;;;;;5028750;28;20053;-33
2023/04/27 01:24:06;;;;;;;7.38;2.92;;;2.80;99.90;;;;;;5039735;28;20483;-33
2023/04/27 01:26:32;;;;;;;4.57;2.40;;;2.80;99.90;;;;;;5040878;28;20131;-33
2023/04/27 01:28:58;;;;;;;6.57;2.80;;;2.70;99.90;;;;;;5040615;28;20100;-33
2023/04/27 01:31:23;;;;;;;6.80;2.50;;;2.80;99.90;;;;;;5032772;28;20045;-33
2023/04/27 01:33:49;;;;;;;4.75;2.28;;;2.70;99.90;;;;;;5042287;28;20040;-33
2023/04/27 01:36:15;;;;;;;5.15;2.10;;;2.70;99.90;;;;;;5039077;28;20061;-33
2023/04/27 01:38:41;;;;;;;4.25;2.00;;;2.70;99.90;;;;;;5041594;28;20136;-33
2023/04/27 01:41:08;;;;;;;6.97;2.50;;;2.70;99.90;;;;;;5039869;28;20052;-33
2023/04/27 01:43:35;;;;;;;6.80;2.20;;;2.60;99.90;;;;;;5049050;28;20561;-33
2023/04/27 01:46:08;;;;;;;6.35;2.90;;;2.70;99.90;;;;;;5040112;28;20053;-33
2023/04/27 01:48:34;;;;;;;;;;;2.70;99.90;;;;;;5041616;28;20045;-33
2023/04/27 01:51:00;;;;;;;7.35;2.30;;;2.70;99.90;;;;;;5034526;28;20364;-33
2023/04/27 01:53:26;;;;;;;4.97;2.22;;;2.60;99.90;;;;;;5045692;28;20065;-33
2023/04/27 01:55:52;;;;;;;6.03;2.55;;;2.60;99.90;;;;;;5041655;28;20407;-33
2023/04/27 01:58:17;;;;;;;4.80;2.20;;;2.60;99.90;;;;;;5038481;28;20046;-32
2023/04/27 02:00:43;;;;;;;7.75;2.70;;;2.50;99.90;;;;;;5031427;28;20058;-33
2023/04/27 02:03:08;;;;;;;9.10;2.55;;;2.50;99.90;;;;;;5031827;28;20046;-33
2023/04/27 02:05:34;;;;;;;7.00;3.10;;;2.50;99.90;;;;;;5047613;28;20056;-33
2023/04/27 02:08:00;;;;;;;7.47;3.20;;;2.50;99.90;;;;;;5031646;28;20498;-33
2023/04/27 02:10:26;;;;;;;6.28;3.28;;;2.50;99.90;;;;;;5037287;28;20056;-33
2023/04/27 02:12:51;;;;;;;6.60;3.72;;;2.50;99.90;;;;;;5042546;28;20061;-33
2023/04/27 02:15:17;;;;;;;7.05;2.88;;;2.50;99.90;;;;;;5038485;28;20049;-33
2023/04/27 02:17:42;;;;;;;7.13;3.67;;;2.50;99.90;;;;;;5039578;28;20064;-33
2023/04/27 02:20:09;;;;;;;8.20;2.72;;;2.50;99.90;;;;;;5031710;28;20056;-33
2023/04/27 02:22:36;;;;;;;10.35;3.28;;;2.50;99.90;;;;;;5031887;28;20415;-33
2023/04/27 02:25:02;;;;;;;7.65;3.13;;;2.50;99.90;;;;;;5039467;28;20054;-33
2023/04/27 02:27:27;;;;;;;8.82;3.13;;;2.40;99.90;;;;;;5031555;28;20053;-34
2023/04/27 02:29:53;;;;;;;7.07;3.38;;;2.40;99.90;;;;;;5039228;28;20053;-33
2023/04/27 02:32:19;;;;;;;8.90;3.88;;;2.40;99.90;;;;;;5044756;28;20076;-33
2023/04/27 02:34:44;;;;;;;8.80;3.55;;;2.40;99.90;;;;;;5041519;28;20041;-33
2023/04/27 02:37:10;;;;;;;7.85;3.15;;;2.40;99.90;;;;;;5035015;28;20068;-33
2023/04/27 02:39:35;;;;;;;6.95;3.55;;;2.40;99.90;;;;;;5044324;28;20452;-33
2023/04/27 02:42:02;;;;;;;8.98;3.40;;;2.40;99.90;;;;;;5033174;28;20092;-33
2023/04/27 02:44:28;;;;;;;8.95;3.45;;;2.40;99.90;;;;;;5051380;28;20045;-33
2023/04/27 02:46:54;;;;;;;8.27;3.58;;;2.40;99.90;;;;;;5032488;28;20073;-33
2023/04/27 02:49:19;;;;;;;6.82;3.25;;;2.40;99.90;;;;;;5046422;28;20521;-33
2023/04/27 02:51:45;;;;;;;7.45;3.55;;;2.30;99.90;;;;;;5039069;28;20410;-33
2023/04/27 02:54:11;;;;;;;6.93;3.40;;;2.30;99.90;;;;;;5031232;28;20064;-33
2023/04/27 02:56:36;;;;;;;9.35;4.03;;;2.30;99.90;;;;;;5031251;28;20115;-33
2023/04/27 02:59:02;;;;;;;7.68;3.35;;;2.30;99.90;;;;;;5038289;28;20094;-33
2023/04/27 03:01:28;;;;;;;6.65;3.13;;;2.30;99.90;;;;;;5023823;28;20041;-33
2023/04/27 03:03:54;;;;;;;8.10;3.97;;;2.30;99.90;;;;;;5038681;28;20385;-33
2023/04/27 03:06:20;;;;;;;8.80;3.40;;;2.20;99.90;;;;;;5035584;28;20796;-33
2023/04/27 03:08:45;;;;;;;8.95;3.97;;;2.20;99.90;;;;;;5034499;28;20037;-33
2023/04/27 03:11:11;;;;;;;15.20;3.42;;;2.20;99.90;;;;;;5036622;28;20056;-33
2023/04/27 03:13:40;;;;;;;5.70;3.05;;;2.20;99.90;;;;;;5037701;28;20064;-33
2023/04/27 03:16:10;;;;;;;7.18;2.90;;;2.20;99.90;;;;;;5030740;28;20196;-33
2023/04/27 03:18:36;;;;;;;6.22;3.20;;;2.20;99.90;;;;;;5037610;28;20049;-33
2023/04/27 03:21:06;;;;;;;7.45;3.40;;;2.20;99.90;;;;;;5031275;28;20132;-33
2023/04/27 03:23:31;;;;;;;7.95;3.88;;;2.10;99.90;;;;;;5030558;28;20722;-33
2023/04/27 03:25:57;;;;;;;8.60;3.40;;;2.10;99.90;;;;;;5030316;28;20053;-33
2023/04/27 03:28:23;;;;;;;7.35;3.25;;;2.10;99.90;;;;;;5030147;28;20454;-33
2023/04/27 03:30:48;;;;;;;6.85;3.30;;;2.00;99.90;;;;;;5039278;28;20053;-33
2023/04/27 03:33:14;;;;;;;6.25;2.58;;;2.00;99.90;;;;;;5027357;28;20473;-34
2023/04/27 03:35:40;;;;;;;7.60;2.72;;;1.90;99.90;;;;;;5052942;28;20055;-33
2023/04/27 03:38:05;;;;;;;5.05;2.60;;;1.90;99.90;;;;;;5049443;28;20051;-33
2023/04/27 03:40:31;;;;;;;7.80;3.00;;;1.80;99.90;;;;;;5036216;28;20064;-33
2023/04/27 03:42:56;;;;;;;6.97;2.72;;;1.80;99.90;;;;;;5038887;28;20053;-33
2023/04/27 03:45:23;;;;;;;6.78;2.60;;;1.80;99.90;;;;;;5037084;28;20080;-33
2023/04/27 03:47:49;;;;;;;5.30;2.70;;;1.70;99.90;;;;;;5030293;28;20053;-33
2023/04/27 03:50:15;;;;;;;6.88;2.83;;;1.70;99.90;;;;;;5029521;28;20060;-33
2023/04/27 03:52:40;;;;;;;5.95;2.38;;;1.70;99.90;;;;;;5022459;28;20099;-33
2023/04/27 03:55:06;;;;;;;8.23;2.80;;;1.70;99.90;;;;;;5031720;28;20053;-33
2023/04/27 03:57:32;;;;;;;7.53;3.58;;;1.80;99.90;;;;;;5036035;28;20064;-33
2023/04/27 03:59:58;;;;;;;7.53;3.30;;;1.70;99.90;;;;;;5029333;28;20411;-33
2023/04/27 04:02:23;;;;;;;7.55;3.05;;;1.80;99.90;;;;;;5033995;28;20507;-33
2023/04/27 04:04:49;;;;;;;8.35;3.53;;;1.80;99.90;;;;;;5033623;28;20057;-33
2023/04/27 04:07:15;;;;;;;7.00;3.28;;;1.80;99.90;;;;;;5040493;28;20064;-33
2023/04/27 04:09:42;;;;;;;8.50;4.18;;;1.80;99.90;;;;;;5039686;28;20046;-32
2023/04/27 04:12:07;;;;;;;9.32;4.13;;;1.80;99.90;;;;;;5024815;28;20148;-34
2023/04/27 04:14:33;;;;;;;8.90;4.20;;;1.80;99.90;;;;;;5029518;28;20129;-35
2023/04/27 04:16:59;;;;;;;6.22;3.03;;;1.80;99.90;;;;;;5037441;28;20152;-33
2023/04/27 04:19:24;;;;;;;7.82;4.18;;;1.80;99.90;;;;;;5029462;28;20087;-34
2023/04/27 04:21:51;;;;;;;6.93;3.55;;;1.80;99.90;;;;;;5029776;28;20053;-32
2023/04/27 04:24:17;;;;;;;8.93;4.72;;;1.80;99.90;;;;;;5035584;28;20137;-32
2023/04/27 04:26:43;;;;;;;9.93;4.30;;;1.80;99.90;;;;;;5029357;28;20057;-32
2023/04/27 04:29:08;;;;;;;6.45;3.40;;;1.80;99.90;;;;;;5038632;28;20060;-32
2023/04/27 04:31:34;;;;;;;9.32;4.63;;;1.80;99.90;;;;;;5043954;28;20418;-33
2023/04/27 04:34:00;;;;;;;9.48;4.30;;;1.80;99.90;;;;;;5028847;28;20184;-33
2023/04/27 04:36:26;;;;;;;7.13;3.65;;;1.90;99.90;;;;;;5041702;28;20056;-32
2023/04/27 04:38:53;;;;;;;9.45;3.53;;;1.80;99.90;;;;;;5040615;28;20045;-32
2023/04/27 04:41:19;;;;;;;10.20;4.20;;;1.90;99.90;;;;;;5037285;28;20518;-32
2023/04/27 04:43:47;;;;;;;10.00;4.13;;;1.90;99.90;;;;;;5021591;28;20058;-32
2023/04/27 04:46:12;;;;;;;8.43;4.43;;;1.90;99.90;;;;;;5036912;28;20045;-32
2023/04/27 04:48:38;;;;;;;7.95;3.60;;;1.90;99.90;;;;;;5029058;28;20072;-32
2023/04/27 04:51:06;;;;;;;7.43;3.42;;;1.90;99.90;;;;;;5028229;28;20049;-32
2023/04/27 04:53:31;;;;;;;8.95;4.18;;;1.90;99.90;;;;;;5029291;28;20060;-34
2023/04/27 04:55:57;;;;;;;8.50;3.85;;;1.90;99.90;;;;;;5021903;28;20057;-32
2023/04/27 04:58:22;;;;;;;8.82;3.50;;;1.90;99.90;;;;;;5031054;28;20523;-32
2023/04/27 05:00:48;;;;;;;6.57;3.35;;;2.00;99.90;;;;;;5032926;28;20049;-32
2023/04/27 05:03:14;;;;;;;8.88;3.78;;;2.00;99.90;;;;;;5051268;28;20056;-32
2023/04/27 05:05:39;;;;;;;7.10;3.40;;;2.00;99.90;;;;;;5047655;28;20127;-34
2023/04/27 05:08:05;;;;;;;10.45;3.92;;;2.00;99.90;;;;;;5033269;28;20132;-34
2023/04/27 05:10:30;;;;;;;7.63;3.47;;;2.10;99.90;;;;;;5040307;28;20053;-32
2023/04/27 05:12:56;;;;;;;7.68;4.05;;;2.10;99.90;;;;;;5041414;28;20069;-32
2023/04/27 05:15:22;;;;;;;9.20;3.72;;;2.10;99.90;;;;;;5031951;28;20115;-32
2023/04/27 05:17:47;;;;;;;7.95;4.03;;;2.20;99.90;;;;;;5039728;28;20049;-32
2023/04/27 05:20:13;;;;;;;7.63;3.83;;;2.20;99.90;;;;;;5035406;28;20049;-32
2023/04/27 05:22:39;;;;;;;7.50;3.50;;;2.30;99.90;;;;;;5039493;28;20045;-32
2023/04/27 05:25:05;;;;;;;7.97;3.83;;;2.30;99.90;;;;;;5047378;28;20045;-32
2023/04/27 05:27:31;;;;;;;8.95;3.63;;;2.30;99.90;;;;;;5040846;28;20068;-32
2023/04/27 05:29:56;;;;;;;6.75;3.47;;;2.40;99.90;;;;;;5032743;28;20049;-32
2023/04/27 05:32:22;;;;;;;8.20;4.07;;;2.50;99.90;;;;;;5031845;28;21073;-33
2023/04/27 05:34:47;;;;;;;9.85;3.97;;;2.60;99.90;;;;;;5032813;28;20053;-32
2023/04/27 05:37:13;;;;;;;5.60;3.30;;;2.70;99.90;;;;;;5041787;28;20048;-32
2023/04/27 05:39:39;;;;;;;9.95;4.45;;;2.80;99.90;;;;;;5047301;28;20061;-32
2023/04/27 05:42:05;;;;;;;9.77;4.53;;;2.80;99.90;;;;;;5040393;28;20040;-32
2023/04/27 05:44:30;;;;;;;8.07;4.05;;;2.90;99.90;;;;;;5032716;28;20054;-32
2023/04/27 05:46:56;;;;;;;9.15;4.53;;;3.00;99.90;;;;;;5047342;28;20395;-32
2023/04/27 05:49:22;;;;;;;7.90;3.92;;;3.10;99.90;;;;;;5041303;28;20050;-32
2023/04/27 05:51:48;;;;;;;9.07;3.58;;;3.10;99.90;;;;;;5040721;28;20741;-32
2023/04/27 05:54:13;;;;;;;10.32;4.32;;;3.20;99.90;;;;;;5033176;28;20128;-32
2023/04/27 05:56:39;;;;;;;9.90;4.35;;;3.30;99.90;;;;;;5039026;28;20049;-32
2023/04/27 05:59:05;;;;;;;9.30;3.95;;;3.30;99.90;;;;;;5032284;28;20041;-32
2023/04/27 06:01:31;;;;;;;10.77;3.90;;;3.40;99.90;;;;;;5037315;28;20623;-32
2023/04/27 06:04:00;;;;;;;10.55;3.53;;;3.50;99.90;;;;;;5032186;28;20079;-32
2023/04/27 06:06:26;;;;;;;7.68;3.85;;;3.50;99.90;;;;;;5038603;28;20053;-32
2023/04/27 06:08:52;;;;;;;7.80;3.90;;;3.60;99.90;;;;;;5037539;28;20048;-32
2023/04/27 06:11:18;;;;;;;11.35;4.10;;;3.70;99.90;;;;;;5051001;28;20489;-32
2023/04/27 06:13:43;;;;;;;8.48;3.90;;;3.70;99.90;;;;;;5038664;28;20064;-32
2023/04/27 06:16:09;;;;;;;6.03;3.38;;;3.80;99.90;;;;;;5039537;28;20586;-32
2023/04/27 06:18:35;;;;;;;9.27;3.20;;;3.90;99.90;;;;;;5048122;28;20473;-32
2023/04/27 06:21:00;;;;;;;9.05;3.70;;;3.90;99.90;;;;;;5039198;28;20045;-32
2023/04/27 06:23:26;;;;;;;6.65;3.53;;;4.00;99.90;;;;;;5032465;28;20407;-33
2023/04/27 06:25:52;;;;;;;6.07;3.42;;;4.00;99.90;;;;;;5031417;28;20063;-32
2023/04/27 06:28:17;;;;;;;10.05;3.38;;;4.10;99.90;;;;;;5039469;28;20111;-32
2023/04/27 06:30:43;;;;;;;5.60;3.22;;;4.20;99.90;;;;;;5031418;28;20385;-32
2023/04/27 06:33:09;;;;;;;6.40;3.00;;;4.30;99.90;;;;;;5039643;28;20424;-33
2023/04/27 06:35:35;;;;;;;8.90;3.65;;;4.40;99.90;;;;;;5030911;28;20064;-32
2023/04/27 06:38:01;;;;;;;7.45;3.20;;;4.50;99.90;;;;;;5038549;28;20045;-32
2023/04/27 06:40:26;;;;;;;6.60;2.92;;;4.60;99.90;;;;;;5040151;28;20128;-33
2023/04/27 06:42:52;;;;;;;6.43;2.95;;;4.70;99.90;;;;;;5031374;28;20051;-34
2023/04/27 06:45:18;;;;;;;7.38;2.80;;;4.80;99.90;;;;;;5031819;28;20491;-33
2023/04/27 06:47:43;;;;;;;5.90;2.70;;;4.90;99.90;;;;;;5050823;28;20145;-32
2023/04/27 06:50:09;;;;;;;3.85;1.80;;;5.00;99.90;;;;;;5051055;28;20068;-33
2023/04/27 06:52:35;;;;;;;6.25;2.38;;;5.10;99.90;;;;;;5039452;28;20060;-33
2023/04/27 06:55:01;;;;;;;6.50;1.88;;;5.10;99.90;;;;;;5029570;28;20154;-33
2023/04/27 06:57:26;;;;;;;8.80;2.45;;;5.20;99.90;;;;;;5048938;28;20512;-33
2023/04/27 06:59:52;;;;;;;3.70;1.92;;;5.30;99.90;;;;;;5037189;28;20073;-33
2023/04/27 07:02:18;;;;;;;6.72;2.38;;;5.40;99.90;;;;;;5029287;28;20484;-33
2023/04/27 07:04:43;;;;;;;5.47;1.88;;;5.50;99.90;;;;;;5040996;28;20076;-33
2023/04/27 07:07:09;;;;;;;5.88;1.90;;;5.60;99.90;;;;;;5050688;28;20067;-33
2023/04/27 07:09:35;;;;;;;4.75;1.73;;;5.70;99.90;;;;;;5030558;28;20060;-33
2023/04/27 07:12:01;;;;;;;4.28;1.77;;;5.80;99.90;;;;;;5029963;28;20045;-34
2023/04/27 07:14:28;;;;;;;4.03;1.50;;;5.90;99.90;;;;;;5046856;28;20045;-33
2023/04/27 07:16:55;;;;;;;4.93;1.80;;;6.00;99.90;;;;;;5036009;28;20521;-33
2023/04/27 07:19:20;;;;;;;4.15;1.55;;;6.10;99.90;;;;;;5032619;28;21445;-33
2023/04/27 07:21:46;;;;;;;3.97;1.60;;;6.10;99.90;;;;;;5033977;28;20132;-33
2023/04/27 07:24:12;;;;;;;2.70;1.40;;;6.20;99.90;;;;;;5042733;28;20511;-33
2023/04/27 07:26:38;;;;;;;4.60;1.50;;;6.30;99.90;;;;;;5030093;28;20045;-33
2023/04/27 07:29:04;;;;;;;3.55;1.45;;;6.40;99.90;;;;;;5030745;28;20081;-34
2023/04/27 07:31:30;;;;;;;5.38;1.30;;;6.50;99.90;;;;;;5029657;28;20073;-34
2023/04/27 07:33:56;;;;;;;3.28;1.83;;;6.60;99.90;;;;;;5030350;28;20496;-36
2023/04/27 07:36:22;;;;;;;3.85;1.10;;;6.80;99.90;;;;;;5030476;28;20053;-35
2023/04/27 07:38:48;;;;;;;3.25;1.33;;;6.90;99.90;;;;;;5046331;28;20165;-34
2023/04/27 07:41:14;;;;;;;3.80;1.60;;;6.90;99.90;;;;;;5030079;28;20452;-34
2023/04/27 07:43:41;;;;;;;3.08;1.48;;;7.00;99.90;;;;;;5029740;28;20195;-33
2023/04/27 07:46:06;;;;;;;2.47;1.23;;;7.10;99.90;;;;;;5037050;28;20064;-33
2023/04/27 07:48:32;;;;;;;4.18;1.20;;;7.20;99.90;;;;;;5030771;28;20495;-34
2023/04/27 07:50:58;;;;;;;6.03;1.90;;;7.30;99.90;;;;;;5030185;28;20055;-34
2023/04/27 07:53:23;;;;;;;4.80;1.90;;;7.30;99.90;;;;;;5045800;28;20061;-33
2023/04/27 07:55:49;;;;;;;3.78;1.45;;;7.40;99.90;;;;;;5034520;28;20410;-33
2023/04/27 07:58:15;;;;;;;2.78;1.13;;;7.60;99.90;;;;;;5042556;28;20049;-33
2023/04/27 08:00:41;;;;;;;3.53;1.20;;;7.70;99.90;;;;;;5037519;28;20063;-34
2023/04/27 08:03:07;;;;;;;3.13;1.50;;;7.80;99.90;;;;;;5030081;28;20041;-34
2023/04/27 08:05:32;;;;;;;3.00;1.42;;;7.90;99.90;;;;;;5028679;28;20053;-33
2023/04/27 08:07:58;;;;;;;7.05;2.30;;;8.00;99.90;;;;;;5043371;28;20049;-34
2023/04/27 08:10:24;;;;;;;5.57;1.42;;;8.10;99.90;;;;;;5049011;28;20155;-34
2023/04/27 08:12:49;;;;;;;4.70;1.52;;;8.20;99.90;;;;;;5049583;28;20061;-34
2023/04/27 08:15:15;;;;;;;6.45;2.92;;;8.40;99.90;;;;;;5049820;28;20053;-34
2023/04/27 08:17:42;;;;;;;4.93;1.20;;;8.40;99.90;;;;;;5048322;28;20052;-34
2023/04/27 08:20:10;;;;;;;5.22;1.15;;;8.50;99.90;;;;;;5049716;28;20136;-34
2023/04/27 08:22:36;;;;;;;3.85;1.42;;;8.60;99.90;;;;;;5048861;28;20041;-34
2023/04/27 08:25:03;;;;;;;4.50;1.42;;;8.60;99.90;;;;;;5049433;28;20048;-34
2023/04/27 08:27:29;;;;;;;4.97;1.48;;;8.70;99.90;;;;;;5048950;28;20052;-33
2023/04/27 08:29:55;;;;;;;4.68;1.33;;;8.80;99.90;;;;;;5049473;28;20045;-33
2023/04/27 08:32:21;;;;;;;2.38;1.00;;;8.90;99.90;;;;;;5048410;28;20410;-33
2023/04/27 08:34:47;;;;;;;4.22;1.08;;;9.00;99.90;;;;;;5037402;28;20049;-34
2023/04/27 08:37:12;;;;;;;4.43;1.20;;;9.10;99.90;;;;;;5029213;28;20064;-33
2023/04/27 08:39:38;;;;;;;8.40;1.45;;;9.10;99.90;;;;;;5028867;28;20045;-33
2023/04/27 08:42:11;;;;;;;3.05;1.20;;;9.20;99.90;;;;;;5028928;28;20059;-34
2023/04/27 08:44:43;;;;;;;2.90;1.10;;;9.30;99.90;;;;;;5037574;28;20045;-34
2023/04/27 08:47:09;;;;;;;3.80;1.17;;;9.30;99.90;;;;;;5029219;28;20073;-33
2023/04/27 08:49:37;;;;;;;4.68;2.03;;;9.40;99.90;;;;;;5043660;28;20110;-33
2023/04/27 08:52:03;;;;;;;2.80;1.08;;;9.50;99.90;;;;;;5034350;28;20388;-33
2023/04/27 08:54:29;;;;;;;2.78;1.10;;;9.50;99.90;;;;;;5032076;28;20145;-33
2023/04/27 08:56:55;;;;;;;2.00;1.10;;;9.60;99.90;;;;;;5036867;28;20060;-33
2023/04/27 08:59:21;;;;;;;2.28;0.90;;;9.70;99.90;;;;;;5029449;28;20446;-33
2023/04/27 09:01:48;;;;;;;1.90;0.93;;;9.80;99.90;;;;;;5045161;28;20116;-34
2023/04/27 09:04:14;;;;;;;3.42;1.00;;;9.80;99.90;;;;;;5029409;28;20042;-33
2023/04/27 09:06:40;;;;;;;6.22;1.10;;;9.80;99.90;;;;;;5046532;28;20522;-34
2023/04/27 09:09:06;;;;;;;1.98;1.10;;;9.90;99.90;;;;;;5049195;28;20079;-33
2023/04/27 09:11:38;;;;;;;3.42;1.40;;;10.00;99.90;;;;;;5030507;28;20468;-33
2023/04/27 09:14:19;;;;;;;2.85;0.93;;;10.10;99.90;;;;;;5049272;28;20049;-33
2023/04/27 09:16:45;;;;;;;2.60;0.90;;;10.10;99.90;;;;;;5048059;28;20056;-34
2023/04/27 09:19:11;;;;;;;3.97;1.05;;;10.20;99.90;;;;;;5049031;28;20052;-33
2023/04/27 09:21:36;;;;;;;2.72;1.13;;;10.20;99.90;;;;;;5047254;28;20430;-35
2023/04/27 09:24:12;;;;;;;5.70;1.50;;;10.20;99.90;;;;;;5048717;28;20044;-32
2023/04/27 09:26:38;;;;;;;2.60;0.80;;;10.40;99.90;;;;;;5048107;28;20462;-35
2023/04/27 09:29:04;;;;;;;3.42;0.90;;;10.50;99.90;;;;;;5048805;28;20564;-33
2023/04/27 09:31:34;;;;;;;5.05;1.00;;;10.70;99.90;;;;;;5047991;28;20057;-34
2023/04/27 09:34:00;;;;;;;3.00;1.27;;;10.70;99.90;;;;;;5028912;28;20503;-33
2023/04/27 09:36:26;;;;;;;2.13;0.90;;;10.80;99.90;;;;;;5036295;28;20052;-33
2023/04/27 09:38:52;;;;;;;2.92;1.20;;;11.00;99.90;;;;;;5031888;28;20555;-33
2023/04/27 09:41:18;;;;;;;4.20;1.00;;;11.00;99.90;;;;;;5034058;28;20053;-33
2023/04/27 09:43:46;;;;;;;2.75;1.85;;;11.10;99.90;;;;;;5029518;28;20041;-33
2023/04/27 09:46:13;;;;;;;4.13;1.52;;;11.20;99.90;;;;;;5032275;28;20057;-33
2023/04/27 09:48:39;;;;;;;3.88;1.40;;;11.20;99.90;;;;;;5032723;28;20506;-33
2023/04/27 09:51:06;;;;;;;3.67;1.10;;;11.30;99.90;;;;;;5052555;28;20049;-33
2023/04/27 09:53:51;;;;;;;2.88;1.50;;;11.40;99.90;;;;;;5040955;28;20096;-33
2023/04/27 09:56:54;;;;;;;8.93;1.63;;;11.30;99.90;;;;;;5037459;28;20553;-33
2023/04/27 09:59:46;;;;;;;5.55;1.17;;;11.30;99.90;;;;;;5032588;28;20049;-33
2023/04/27 10:02:15;;;;;;;4.13;1.27;;;11.40;99.90;;;;;;5033073;28;20533;-33
2023/04/27 10:05:09;;;;;;;4.07;1.20;;;11.50;99.90;;;;;;5037890;28;20091;-33
2023/04/27 10:07:37;;;;;;;4.20;1.25;;;11.70;99.90;;;;;;5043014;28;20056;-33
2023/04/27 10:10:04;;;;;;;5.13;1.10;;;11.70;99.90;;;;;;5036322;28;20209;-33
2023/04/27 10:12:35;;;;;;;3.42;1.42;;;11.70;99.90;;;;;;5039225;28;20144;-33
2023/04/27 10:15:15;;;;;;;4.97;1.63;;;11.80;99.90;;;;;;5032047;28;20414;-34
2023/04/27 10:17:53;;;;;;;3.35;1.27;;;11.80;99.90;;;;;;5051248;28;20049;-33
2023/04/27 10:20:29;;;;;;;4.60;2.03;;;11.80;99.90;;;;;;5050961;28;20045;-33
2023/04/27 10:22:55;;;;;;;3.45;1.40;;;11.80;99.90;;;;;;5031120;28;20499;-33
2023/04/27 10:25:36;;;;;;;5.93;2.40;;;11.80;99.90;;;;;;5031315;28;20056;-33
2023/04/27 10:28:02;;;;;;;4.75;1.85;;;11.90;99.90;;;;;;5039960;28;20041;-33
2023/04/27 10:30:32;;;;;;;3.83;1.60;;;12.00;99.90;;;;;;5031323;28;20053;-33
2023/04/27 10:33:03;;;;;;;2.60;1.52;;;12.10;99.90;;;;;;5039506;28;20062;-33
2023/04/27 10:35:37;;;;;;;5.47;1.90;;;12.30;99.90;;;;;;5030831;28;20057;-33
2023/04/27 10:38:21;;;;;;;5.00;1.67;;;12.30;99.90;;;;;;5031264;28;20088;-34
2023/04/27 10:41:01;;;;;;;4.20;1.63;;;12.30;99.90;;;;;;5063037;28;20085;-33
2023/04/27 10:43:29;;;;;;;4.03;1.30;;;12.60;99.90;;;;;;5031790;28;20057;-33
2023/04/27 10:46:13;;;;;;;6.97;1.75;;;12.80;99.90;;;;;;5038717;28;20134;-34
2023/04/27 10:48:40;;;;;;;4.57;1.55;;;12.90;99.90;;;;;;5032216;28;20049;-34
2023/04/27 10:51:06;;;;;;;5.05;1.73;;;13.00;99.90;;;;;;5045151;28;20503;-34
2023/04/27 10:53:35;;;;;;;3.45;1.90;;;13.10;99.90;;;;;;5040757;28;20065;-34
2023/04/27 10:56:02;;;;;;;3.90;1.70;;;13.10;99.90;;;;;;5043980;28;20063;-34
2023/04/27 10:58:28;;;;;;;6.35;2.20;;;13.30;99.90;;;;;;5050229;28;20552;-34
2023/04/27 11:00:54;;;;;;;3.53;1.40;;;13.30;99.90;;;;;;5047098;28;20053;-33
2023/04/27 11:03:24;;;;;;;3.88;1.80;;;13.40;99.90;;;;;;5038157;28;20056;-33
2023/04/27 11:06:00;;;;;;;4.03;1.90;;;13.40;99.90;;;;;;5042528;28;20061;-34
2023/04/27 11:08:26;;;;;;;3.70;1.75;;;13.30;99.90;;;;;;5033457;28;20068;-34
2023/04/27 11:10:52;;;;;;;3.72;1.75;;;13.20;99.90;;;;;;5043260;28;20049;-34
2023/04/27 11:13:23;;;;;;;6.63;2.10;;;13.30;99.90;;;;;;5050980;28;20057;-34
2023/04/27 11:15:51;;;;;;;5.93;1.90;;;13.30;99.90;;;;;;5037402;28;20080;-34
2023/04/27 11:18:20;;;;;;;6.97;2.13;;;13.20;99.90;;;;;;5031025;28;20195;-34
2023/04/27 11:20:51;;;;;;;4.57;1.75;;;13.20;99.90;;;;;;5038264;28;20049;-33
2023/04/27 11:23:35;;;;;;;4.70;1.70;;;13.10;99.90;;;;;;5030924;28;20461;-34
2023/04/27 11:26:08;;;;;;;4.25;1.83;;;13.00;99.90;;;;;;5038415;28;20053;-34
2023/04/27 11:28:33;;;;;;;5.72;2.30;;;12.90;99.90;;;;;;5030446;28;20084;-34
2023/04/27 11:30:59;;;;;;;3.45;1.73;;;12.70;99.90;;;;;;5041202;28;20076;-34
2023/04/27 11:33:26;;;;;;;5.60;2.30;;;12.80;99.90;;;;;;5035669;28;20119;-34
2023/04/27 11:35:53;;;;;;;4.30;1.55;;;13.00;99.90;;;;;;5048341;28;20061;-34
2023/04/27 11:38:19;;;;;;;4.22;1.52;;;13.10;99.90;;;;;;5050471;28;20525;-34
2023/04/27 11:40:46;;;;;;;2.80;1.70;;;13.20;99.90;;;;;;5032316;28;20507;-34
2023/04/27 11:43:12;;;;;;;4.45;1.80;;;13.30;99.90;;;;;;5034692;28;20377;-34
2023/04/27 11:45:43;;;;;;;4.45;1.73;;;13.50;99.90;;;;;;5033848;28;20060;-34
2023/04/27 11:48:14;;;;;;;6.30;2.15;;;13.70;99.90;;;;;;5035856;28;20126;-34
2023/04/27 11:50:39;;;;;;;6.63;2.55;;;13.70;99.90;;;;;;5037586;28;20456;-34
2023/04/27 11:53:05;;;;;;;6.03;1.90;;;13.70;99.90;;;;;;5047850;28;20061;-33
2023/04/27 11:55:36;;;;;;;6.30;2.10;;;13.70;99.90;;;;;;5035624;28;20046;-34
2023/04/27 11:58:01;;;;;;;4.18;2.00;;;13.80;99.90;;;;;;5037791;28;20132;-33
2023/04/27 12:00:27;;;;;;;3.75;1.98;;;13.80;99.90;;;;;;5030083;28;20530;-33
2023/04/27 12:02:53;;;;;;;4.88;2.15;;;14.00;99.90;;;;;;5037744;28;20160;-34
2023/04/27 12:05:19;;;;;;;5.28;2.10;;;13.90;99.90;;;;;;5042271;28;20151;-34
2023/04/27 12:07:45;;;;;;;2.83;1.70;;;13.90;99.90;;;;;;5033538;28;20055;-34
2023/04/27 12:10:11;;;;;;;4.10;1.70;;;14.10;99.90;;;;;;5029280;28;20491;-34
2023/04/27 12:12:37;;;;;;;5.88;2.10;;;14.10;99.90;;;;;;5036582;28;20048;-34
2023/04/27 12:15:03;;;;;;;5.45;2.53;;;14.30;99.90;;;;;;5048804;28;20044;-34
2023/04/27 12:17:28;;;;;;;4.97;2.30;;;14.40;99.90;;;;;;5035894;28;20087;-34
2023/04/27 12:19:54;;;;;;;3.67;1.92;;;14.70;99.90;;;;;;5038053;28;20068;-34
2023/04/27 12:22:20;;;;;;;7.78;2.30;;;14.90;99.90;;;;;;5049469;28;20060;-33
2023/04/27 12:24:45;;;;;;;3.65;1.98;;;15.20;99.90;;;;;;5033455;28;20049;-34
2023/04/27 12:27:11;;;;;;;3.50;1.77;;;15.50;99.90;;;;;;5029180;28;20132;-33
2023/04/27 12:29:37;;;;;;;6.15;2.05;;;15.70;99.90;;;;;;5021690;28;20085;-33
2023/04/27 12:32:03;;;;;;;4.85;1.90;;;15.70;99.90;;;;;;5029149;28;20060;-33
2023/04/27 12:34:29;;;;;;;6.30;2.30;;;15.80;99.90;;;;;;5029389;28;20045;-33
2023/04/27 12:36:55;;;;;;;4.45;2.08;;;16.00;99.90;;;;;;5037061;28;20041;-33
2023/04/27 12:39:24;;;;;;;4.55;1.80;;;16.00;99.90;;;;;;5033169;28;20410;-34
2023/04/27 12:41:51;;;;;;;3.88;1.98;;;16.00;99.90;;;;;;5049346;28;20470;-33
2023/04/27 12:44:19;;;;;;;3.75;1.80;;;15.90;99.90;;;;;;5048953;28;20489;-33
2023/04/27 12:46:46;;;;;;;2.92;1.70;;;15.70;99.90;;;;;;5049224;28;20045;-33
2023/04/27 12:49:13;;;;;;;4.72;1.73;;;15.80;99.90;;;;;;5029446;28;20114;-33
2023/04/27 12:51:38;;;;;;;4.05;1.90;;;15.80;99.90;;;;;;5029249;28;20077;-33